Time;durP1;ratioP1;P1;durP2;ratioP2;P2;SDS_P1;SDS_P2;PMS_P1;PMS_P2;Temp;Humidity;BMP_temperature;BMP_pressure;BME280_temperature;BME280_humidity;BME280_pressure;Samples;Min_cycle;Max_cycle;Signal;HPM_P1;HPM_P2
2022/05/08 00:00:35;;;;;;;;;34.20;29.20;;;;;20.37;46.65;99317.47;6251295;27;97530;-63
2022/05/08 00:03:40;;;;;;;;;33.80;30.40;;;;;20.35;46.59;99305.16;6238314;27;96920;-66
2022/05/08 00:06:43;;;;;;;;;34.00;30.00;;;;;20.28;46.65;99313.63;6253155;27;97372;-66
2022/05/08 00:09:47;;;;;;;;;34.80;30.40;;;;;20.25;46.75;99298.56;6242293;27;96604;-67
2022/05/08 00:12:51;;;;;;;;;30.80;28.00;;;;;20.27;46.69;99303.75;6239357;27;96830;-64
2022/05/08 00:15:54;;;;;;;;;27.50;25.50;;;;;20.23;47.27;99302.69;6229651;27;99618;-64
2022/05/08 00:18:59;;;;;;;;;31.00;29.00;;;;;20.09;47.77;99307.84;6251128;27;96631;-64
2022/05/08 00:22:02;;;;;;;;;35.00;30.00;;;;;19.94;47.96;99304.31;6234370;27;98372;-64
2022/05/08 00:25:26;;;;;;;;;31.80;29.20;;;;;19.77;48.42;99299.91;6238361;27;96623;-67
2022/05/08 00:28:29;;;;;;;;;33.40;29.20;;;;;19.71;48.89;99291.94;6251829;27;97211;-68
2022/05/08 00:31:33;;;;;;;;;33.50;30.00;;;;;19.71;48.55;99303.72;6256694;27;96687;-69
2022/05/08 00:34:37;;;;;;;;;35.20;30.20;;;;;19.73;48.57;99298.81;6259152;27;97318;-64
2022/05/08 00:37:41;;;;;;;;;33.40;30.00;;;;;19.70;48.62;99287.56;6224051;27;99688;-67
2022/05/08 00:40:45;;;;;;;;;34.50;31.25;;;;;19.75;48.60;99290.31;6247506;27;97516;-66
2022/05/08 00:43:48;;;;;;;;;33.00;30.00;;;;;19.83;48.62;99281.59;6248372;27;97695;-66
2022/05/08 00:46:51;;;;;;;;;36.20;30.60;;;;;19.82;48.66;99286.22;6251877;27;97524;-65
2022/05/08 00:49:56;;;;;;;;;35.80;32.40;;;;;19.87;48.58;99288.97;6260574;27;97141;-67
2022/05/08 00:53:00;;;;;;;;;38.00;32.00;;;;;19.87;48.84;99286.25;6260937;27;97562;-64
2022/05/08 00:56:06;;;;;;;;;33.50;30.00;;;;;19.89;48.83;99283.22;6228250;28;99237;-68
2022/05/08 00:59:09;;;;;;;;;35.80;31.60;;;;;19.80;48.97;99280.19;6252101;27;97079;-65
2022/05/08 01:02:13;;;;;;;;;36.60;32.00;;;;;19.78;49.49;99287.88;6233108;27;98056;-68
2022/05/08 01:05:21;;;;;;;;;34.25;31.00;;;;;19.80;48.74;99291.13;6234492;27;97366;-66
2022/05/08 01:08:26;;;;;;;;;35.50;30.00;;;;;19.82;49.14;99294.44;6241603;27;97754;-66
2022/05/08 01:11:29;;;;;;;;;33.50;30.00;;;;;19.85;48.83;99298.53;6240673;27;97560;-66
2022/05/08 01:14:32;;;;;;;;;35.60;30.60;;;;;19.83;48.98;99292.53;6234686;27;96945;-65
2022/05/08 01:17:36;;;;;;;;;34.80;30.80;;;;;19.77;49.73;99299.91;6227959;27;99679;-66
2022/05/08 01:20:42;;;;;;;;;37.25;31.50;;;;;19.74;49.50;99307.84;6251591;27;97338;-65
2022/05/08 01:23:48;;;;;;;;;37.50;31.00;;;;;19.71;49.97;99300.97;6248342;27;96400;-69
2022/05/08 01:26:51;;;;;;;;;35.00;31.00;;;;;19.70;49.63;99295.78;6251512;27;98229;-67
2022/05/08 01:29:55;;;;;;;;;36.20;30.20;;;;;19.70;49.76;99293.03;6209636;27;98125;-67
2022/05/08 01:33:00;;;;;;;;;34.75;32.00;;;;;19.74;49.78;99299.63;6218571;27;98836;-65
2022/05/08 01:36:03;;;;;;;;;34.75;30.50;;;;;19.73;49.72;99296.06;6201390;27;97350;-64
2022/05/08 01:39:08;;;;;;;;;34.40;30.00;;;;;19.73;49.80;99298.81;6226404;27;97298;-66
2022/05/08 01:42:11;;;;;;;;;32.20;29.20;;;;;19.75;49.95;99288.41;6251314;27;97207;-66
2022/05/08 01:45:15;;;;;;;;;35.00;31.00;;;;;19.76;49.87;99289.22;6255549;27;97528;-68
2022/05/08 01:48:25;;;;;;;;;35.00;30.60;;;;;19.77;49.86;99288.97;6247002;27;97129;-66
2022/05/08 01:51:29;;;;;;;;;33.40;30.00;;;;;19.60;50.41;99287.53;6249111;27;96418;-68
2022/05/08 01:54:33;;;;;;;;;35.00;32.00;;;;;19.53;50.60;99287.81;6241022;27;96786;-67
2022/05/08 01:57:37;;;;;;;;;34.33;30.00;;;;;19.50;50.64;99293.03;6239012;27;96650;-67
2022/05/08 02:00:40;;;;;;;;;35.60;31.60;;;;;19.46;51.01;99287.25;6240032;27;97689;-68
2022/05/08 02:03:45;;;;;;;;;34.00;30.00;;;;;19.45;50.99;99294.63;6245028;27;96917;-67
2022/05/08 02:06:50;;;;;;;;;36.75;30.75;;;;;19.42;51.20;99289.69;6241331;27;98762;-64
2022/05/08 02:09:57;;;;;;;;;34.40;30.00;;;;;19.36;51.24;99292.66;6223887;27;97149;-68
2022/05/08 02:13:01;;;;;;;;;32.00;30.00;;;;;19.37;51.43;99289.66;6241976;27;97026;-65
2022/05/08 02:16:04;;;;;;;;;34.00;31.00;;;;;19.37;51.46;99284.19;6244107;27;96384;-65
2022/05/08 02:19:08;;;;;;;;;38.40;31.20;;;;;19.38;51.29;99277.63;6238263;27;97449;-68
2022/05/08 02:22:11;;;;;;;;;33.00;30.00;;;;;19.46;50.75;99279.03;6260415;27;97437;-67
2022/05/08 02:25:16;;;;;;;;;32.60;29.60;;;;;19.47;51.11;99277.97;6242402;27;96645;-65
2022/05/08 02:28:19;;;;;;;;;31.75;30.00;;;;;19.39;50.68;99270.25;6221348;28;98266;-64
2022/05/08 02:31:22;;;;;;;;;33.00;28.25;;;;;19.52;50.59;99279.88;6239768;27;97543;-64
2022/05/08 02:34:26;;;;;;;;;33.25;30.00;;;;;19.46;51.04;99279.03;6240908;27;97476;-64
2022/05/08 02:37:31;;;;;;;;;32.60;30.60;;;;;19.46;50.78;99285.34;6262573;27;96753;-67
2022/05/08 02:40:36;;;;;;;;;36.00;31.00;;;;;19.44;50.63;99289.44;6255955;27;97993;-67
2022/05/08 02:43:39;;;;;;;;;31.00;29.50;;;;;19.50;50.71;99287.56;6259626;27;97437;-66
2022/05/08 02:46:43;;;;;;;;;34.00;30.00;;;;;19.50;50.67;99288.34;6244548;27;97479;-67
2022/05/08 02:49:46;;;;;;;;;31.50;28.75;;;;;19.50;50.41;99284.81;6242163;27;97376;-67
2022/05/08 02:52:50;;;;;;;;;32.00;30.00;;;;;19.60;49.92;99282.91;6245275;27;96930;-67
2022/05/08 02:59:16;;;;;;;;;29.40;27.60;;;;;19.65;50.00;99295.75;6239049;27;96390;-66
2022/05/08 03:02:19;;;;;;;;;30.50;29.00;;;;;19.62;50.19;99294.41;6240602;27;96666;-66
2022/05/08 03:05:23;;;;;;;;;35.40;30.00;;;;;19.56;50.54;99295.47;6245816;27;97473;-65
2022/05/08 03:08:26;;;;;;;;;31.20;26.20;;;;;19.48;50.52;99296.00;6246137;27;96407;-66
2022/05/08 03:11:32;;;;;;;;;28.50;25.75;;;;;19.46;50.64;99299.00;6250466;27;97630;-65
2022/05/08 03:14:37;;;;;;;;;35.67;30.00;;;;;19.45;50.75;99293.81;6239621;27;96946;-66
2022/05/08 03:17:41;;;;;;;;;31.00;28.60;;;;;19.53;50.51;99295.19;6258378;27;97421;-67
2022/05/08 03:20:44;;;;;;;;;29.60;27.00;;;;;19.54;50.47;99297.69;6252028;27;97991;-66
2022/05/08 03:23:48;;;;;;;;;30.60;26.20;;;;;19.53;50.27;99295.19;6242325;27;99899;-66
2022/05/08 03:26:53;;;;;;;;;28.60;26.00;;;;;19.59;50.38;99300.44;6260456;27;97466;-67
2022/05/08 03:29:56;;;;;;;;;31.00;28.00;;;;;19.61;50.21;99305.59;6248767;27;97952;-65
2022/05/08 03:33:00;;;;;;;;;27.50;24.50;;;;;19.55;50.55;99310.25;6249868;27;97490;-65
2022/05/08 03:36:04;;;;;;;;;30.60;27.60;;;;;19.37;50.90;99281.47;6261243;27;98079;-68
2022/05/08 03:39:07;;;;;;;;;29.50;26.25;;;;;19.48;50.69;99304.22;6257069;27;96445;-67
2022/05/08 03:42:15;;;;;;;;;27.00;25.60;;;;;19.45;50.71;99304.75;6228806;27;99513;-67
2022/05/08 03:45:18;;;;;;;;;26.00;23.50;;;;;19.47;50.80;99308.03;6230892;27;96715;-68
2022/05/08 03:48:22;;;;;;;;;24.00;23.00;;;;;19.51;50.89;99313.78;6226268;27;96561;-66
2022/05/08 03:51:25;;;;;;;;;24.00;23.00;;;;;19.53;50.54;99317.09;6237194;27;97524;-68
2022/05/08 03:54:28;;;;;;;;;27.00;25.00;;;;;19.60;50.53;99317.63;6256350;27;97512;-67
2022/05/08 03:57:33;;;;;;;;;25.00;23.00;;;;;19.65;50.10;99323.13;6255282;27;97216;-66
2022/05/08 04:00:36;;;;;;;;;22.75;21.00;;;;;19.69;50.33;99322.34;6258936;27;96696;-67
2022/05/08 04:03:40;;;;;;;;;24.75;21.50;;;;;19.71;50.30;99322.88;6228192;28;97784;-64
2022/05/08 04:06:43;;;;;;;;;23.60;22.00;;;;;19.74;50.06;99329.72;6250950;27;96706;-65
2022/05/08 04:09:46;;;;;;;;;23.50;21.50;;;;;19.61;49.76;99302.88;6245285;27;97074;-68
2022/05/08 04:12:51;;;;;;;;;22.00;21.00;;;;;19.83;49.77;99336.31;6239971;27;98444;-67
2022/05/08 04:19:16;;;;;;;;;22.00;20.00;;;;;19.87;49.25;99337.41;6237557;27;96854;-67
2022/05/08 04:25:41;;;;;;;;;23.00;19.50;;;;;19.90;49.05;99336.84;6218341;27;96695;-67
2022/05/08 04:28:46;;;;;;;;;22.00;20.00;;;;;19.92;49.46;99331.94;6224883;27;97593;-65
2022/05/08 04:31:49;;;;;;;;;19.50;17.50;;;;;19.93;49.37;99341.81;6237141;27;98132;-66
2022/05/08 04:34:52;;;;;;;;;19.20;19.00;;;;;19.98;49.05;99350.00;6237003;27;96666;-66
2022/05/08 04:37:56;;;;;;;;;23.40;20.00;;;;;20.03;49.11;99349.19;6248183;27;96938;-65
2022/05/08 04:40:59;;;;;;;;;23.00;20.40;;;;;20.08;49.12;99355.50;6253968;27;98499;-67
2022/05/08 04:44:04;;;;;;;;;23.60;22.00;;;;;20.10;49.30;99353.28;6261327;27;97838;-65
2022/05/08 04:47:07;;;;;;;;;24.67;23.33;;;;;20.06;49.65;99359.59;6237971;27;96893;-67
2022/05/08 04:50:11;;;;;;;;;26.00;22.00;;;;;20.08;49.88;99357.41;6256055;27;96386;-64
2022/05/08 04:53:14;;;;;;;;;26.75;23.75;;;;;20.07;49.76;99353.84;6248885;27;96554;-65
2022/05/08 04:56:17;;;;;;;;;22.60;21.20;;;;;20.09;49.71;99359.88;6248332;27;98322;-67
2022/05/08 04:59:22;;;;;;;;;22.40;21.40;;;;;20.04;49.78;99362.59;6213364;27;96798;-64
2022/05/08 05:02:25;;;;;;;;;25.00;23.00;;;;;20.03;49.74;99368.34;6250719;27;98102;-65
2022/05/08 05:05:29;;;;;;;;;26.00;23.40;;;;;20.06;49.67;99370.53;6220204;27;99455;-65
2022/05/08 05:08:32;;;;;;;;;27.00;23.00;;;;;20.02;49.99;99375.75;6221372;27;96806;-68
2022/05/08 05:11:35;;;;;;;;;28.60;24.00;;;;;20.04;50.22;99378.19;6238256;27;98205;-67
2022/05/08 05:14:41;;;;;;;;;26.40;23.60;;;;;20.08;49.96;99368.38;6243590;27;98573;-67
2022/05/08 05:17:45;;;;;;;;;28.00;25.00;;;;;20.12;49.90;99373.03;6246424;27;97783;-66
2022/05/08 05:20:48;;;;;;;;;26.00;25.40;;;;;20.05;50.31;99363.41;6230617;27;96786;-64
2022/05/08 05:23:51;;;;;;;;;27.50;25.00;;;;;20.19;50.17;99379.03;6240910;27;96869;-64
2022/05/08 05:26:54;;;;;;;;;28.40;24.00;;;;;20.24;50.04;99386.44;6223903;27;98018;-67
2022/05/08 05:30:00;;;;;;;;;28.80;26.40;;;;;20.32;49.57;99385.94;6221353;28;98012;-64
2022/05/08 05:33:05;;;;;;;;;28.60;26.00;;;;;20.38;49.50;99393.03;6249237;27;97561;-65
2022/05/08 05:36:08;;;;;;;;;29.75;26.00;;;;;20.45;49.92;99388.13;6264664;27;97825;-67
2022/05/08 05:39:11;;;;;;;;;28.75;25.00;;;;;20.47;49.80;99391.44;6262943;27;96674;-64
2022/05/08 05:42:15;;;;;;;;;28.75;25.75;;;;;20.48;49.90;99389.47;6265772;27;97435;-66
2022/05/08 05:45:19;;;;;;;;;27.40;25.00;;;;;20.44;49.70;99391.97;6238822;27;96814;-68
2022/05/08 05:48:21;;;;;;;;;29.40;25.00;;;;;20.55;49.29;99390.03;6260102;27;96936;-68
2022/05/08 05:51:24;;;;;;;;;27.00;25.00;;;;;20.53;49.74;99393.03;6222603;27;97412;-67
2022/05/08 05:54:29;;;;;;;;;24.25;23.00;;;;;20.50;49.83;99393.59;6240159;27;96640;-66
2022/05/08 05:57:34;;;;;;;;;28.00;24.00;;;;;20.49;49.93;99396.59;6244837;27;96692;-66
2022/05/08 06:00:38;;;;;;;;;26.00;23.00;;;;;20.48;49.97;99403.19;6262303;27;97028;-66
2022/05/08 06:03:48;;;;;;;;;26.60;25.00;;;;;20.37;50.47;99404.28;6247029;27;96664;-65
2022/05/08 06:06:51;;;;;;;;;27.00;24.75;;;;;20.37;49.95;99399.63;6244174;27;96884;-66
2022/05/08 06:09:54;;;;;;;;;25.80;24.00;;;;;20.35;50.42;99403.72;6264096;27;98093;-67
2022/05/08 06:12:58;;;;;;;;;27.40;24.00;;;;;20.37;50.08;99394.16;6237141;27;97479;-68
2022/05/08 06:16:03;;;;;;;;;28.00;26.00;;;;;20.44;49.97;99391.13;6264891;27;98037;-65
2022/05/08 06:19:08;;;;;;;;;26.60;23.60;;;;;20.44;49.53;99385.66;6242491;27;97967;-66
2022/05/08 06:22:11;;;;;;;;;30.00;26.00;;;;;20.62;49.52;99407.84;6249205;27;96819;-66
2022/05/08 06:25:15;;;;;;;;;23.60;22.60;;;;;20.64;49.40;99405.66;6238741;28;96475;-66
2022/05/08 06:28:19;;;;;;;;;24.00;22.00;;;;;20.68;49.33;99409.47;6252137;27;96983;-67
2022/05/08 06:31:24;;;;;;;;;25.00;22.60;;;;;20.79;49.31;99413.03;6263183;27;97382;-69
2022/05/08 06:34:28;;;;;;;;;27.00;25.00;;;;;20.91;48.60;99408.09;6243617;27;97511;-65
2022/05/08 06:37:31;;;;;;;;;24.00;21.00;;;;;21.10;48.82;99411.91;6239325;27;96585;-64
2022/05/08 06:40:41;;;;;;;;;24.33;21.33;;;;;21.24;47.92;99401.19;6241450;27;97412;-67
2022/05/08 06:43:45;;;;;;;;;23.60;21.60;;;;;21.43;47.37;99404.16;6246421;27;97002;-66
2022/05/08 06:46:50;;;;;;;;;24.00;21.00;;;;;21.55;47.84;99408.22;6242502;27;97773;-67
2022/05/08 06:49:53;;;;;;;;;23.00;21.80;;;;;21.86;46.97;99414.38;6238791;27;97608;-68
2022/05/08 06:52:56;;;;;;;;;21.00;21.00;;;;;22.08;46.02;99399.47;6235782;28;97992;-67
2022/05/08 06:56:00;;;;;;;;;24.00;22.40;;;;;22.35;45.62;99416.31;6246608;27;96966;-65
2022/05/08 07:02:26;;;;;;;;;21.60;19.60;;;;;22.78;44.42;99387.94;6238761;28;96569;-66
2022/05/08 07:05:31;;;;;;;;;21.40;18.60;;;;;23.28;43.76;99416.03;6220804;28;98386;-67
2022/05/08 07:08:35;;;;;;;;;23.00;21.60;;;;;23.55;42.61;99415.50;6236257;27;98473;-67
2022/05/08 07:11:38;;;;;;;;;19.60;17.60;;;;;23.88;42.47;99411.75;6245662;27;97495;-66
2022/05/08 07:14:43;;;;;;;;;21.80;18.80;;;;;24.26;41.25;99420.06;6245873;27;97416;-66
2022/05/08 07:17:55;;;;;;;;;22.00;19.00;;;;;24.66;40.30;99413.91;6217895;28;98170;-67
2022/05/08 07:20:59;;;;;;;;;20.60;18.80;;;;;24.91;39.33;99419.03;6241802;27;97625;-67
2022/05/08 07:24:02;;;;;;;;;18.50;17.50;;;;;25.14;38.81;99414.44;6263833;27;96614;-66
2022/05/08 07:27:05;;;;;;;;;18.00;18.00;;;;;25.46;38.72;99417.13;6240447;27;98315;-67
2022/05/08 07:30:10;;;;;;;;;19.00;18.00;;;;;25.65;37.41;99424.53;6238550;28;96862;-67
2022/05/08 07:33:16;;;;;;;;;17.00;16.00;;;;;25.88;36.69;99420.72;6238312;28;97444;-66
2022/05/08 07:36:19;;;;;;;;;17.00;14.25;;;;;26.07;36.41;99424.16;6238708;28;96455;-65
2022/05/08 07:39:23;;;;;;;;;19.00;16.00;;;;;26.30;36.43;99425.84;6243174;27;96650;-65
2022/05/08 07:42:26;;;;;;;;;18.00;17.00;;;;;26.67;35.90;99427.47;6244970;27;97918;-67
2022/05/08 07:45:29;;;;;;;;;16.00;15.67;;;;;26.74;34.99;99419.53;6262884;27;97639;-68
2022/05/08 07:48:36;;;;;;;;;18.00;16.60;;;;;26.92;34.99;99428.81;6263757;27;96529;-68
2022/05/08 07:51:40;;;;;;;;;17.00;16.00;;;;;26.98;34.46;99440.53;6244810;27;99442;-68
2022/05/08 07:54:45;;;;;;;;;14.50;14.00;;;;;27.04;34.12;99436.50;6228498;27;98664;-68
2022/05/08 07:57:48;;;;;;;;;16.60;15.40;;;;;27.28;33.52;99436.97;6209485;27;97613;-67
2022/05/08 08:00:53;;;;;;;;;15.75;13.75;;;;;27.56;34.20;99443.16;6219168;27;99454;-65
2022/05/08 08:03:58;;;;;;;;;14.80;13.40;;;;;27.79;33.16;99439.16;6239295;27;96798;-67
2022/05/08 08:07:02;;;;;;;;;17.00;16.00;;;;;27.85;32.97;99440.66;6259457;27;97305;-66
2022/05/08 08:10:06;;;;;;;;;17.80;15.20;;;;;28.08;33.07;99446.88;6245332;27;97280;-66
2022/05/08 08:13:10;;;;;;;;;16.75;14.00;;;;;28.19;32.47;99442.69;6234870;27;96705;-65
2022/05/08 08:16:16;;;;;;;;;15.00;13.20;;;;;28.38;32.10;99440.44;6256554;27;96704;-67
2022/05/08 08:19:21;;;;;;;;;16.00;15.00;;;;;28.59;31.53;99437.78;6224112;27;98379;-64
2022/05/08 08:22:25;;;;;;;;;16.00;15.00;;;;;28.80;30.98;99443.53;6237693;27;97833;-67
2022/05/08 08:25:29;;;;;;;;;15.50;15.00;;;;;28.69;31.01;99440.25;6241706;27;97564;-66
2022/05/08 08:28:32;;;;;;;;;12.80;12.00;;;;;28.96;31.47;99446.63;6248856;27;96452;-66
2022/05/08 08:31:35;;;;;;;;;14.60;12.60;;;;;28.88;30.85;99445.50;6219588;28;97533;-66
2022/05/08 08:34:40;;;;;;;;;11.00;11.00;;;;;28.60;30.51;99430.28;6202120;28;98685;-68
2022/05/08 08:37:44;;;;;;;;;12.00;11.00;;;;;28.94;30.92;99443.34;6219297;28;98414;-68
2022/05/08 08:40:50;;;;;;;;;12.60;10.60;;;;;29.11;30.52;99435.81;6219244;28;99549;-65
2022/05/08 08:50:38;;;;;;;;;16.00;13.00;;;;;29.58;29.97;99453.31;6240658;27;96775;-67
2022/05/08 08:53:42;;;;;;;;;12.00;11.00;;;;;29.57;29.31;99445.28;6261995;27;96268;-65
2022/05/08 08:56:45;;;;;;;;;13.60;13.40;;;;;29.45;28.60;99439.63;6262169;27;96538;-67
2022/05/08 08:59:50;;;;;;;;;12.67;12.00;;;;;29.47;28.65;99452.03;6254037;27;98409;-69
2022/05/08 09:02:55;;;;;;;;;13.00;12.00;;;;;29.59;29.79;99449.38;6261204;27;97414;-68
2022/05/08 09:06:02;;;;;;;;;13.00;13.00;;;;;30.02;29.05;99451.97;6234401;27;97455;-69
2022/05/08 09:09:22;;;;;;;;;15.00;14.00;;;;;30.37;28.34;99446.16;6242352;27;97509;-66
2022/05/08 09:12:26;;;;;;;;;14.00;12.00;;;;;30.79;28.67;99452.56;6254517;27;97200;-65
2022/05/08 09:15:30;;;;;;;;;14.50;12.75;;;;;30.95;27.69;99450.75;6243469;27;96374;-65
2022/05/08 09:18:44;;;;;;;;;16.40;15.00;;;;;30.96;27.63;99458.75;6242767;27;97164;-68
2022/05/08 09:21:58;;;;;;;;;13.40;11.60;;;;;30.92;26.91;99451.44;6260454;27;96619;-68
2022/05/08 09:25:02;;;;;;;;;13.00;12.00;;;;;30.98;27.40;99450.84;6240251;27;96750;-65
2022/05/08 09:28:07;;;;;;;;;13.80;13.00;;;;;30.84;27.47;99444.78;6218064;27;98333;-70
2022/05/08 09:31:12;;;;;;;;;13.00;13.00;;;;;30.59;27.39;99442.25;6241264;27;96796;-66
2022/05/08 09:34:16;;;;;;;;;14.00;13.00;;;;;30.40;27.22;99434.34;6247138;27;98052;-65
2022/05/08 09:37:21;;;;;;;;;13.40;12.60;;;;;30.43;27.16;99439.25;6242179;27;97352;-66
2022/05/08 09:40:27;;;;;;;;;13.00;12.00;;;;;30.48;27.64;99439.88;6252285;27;97438;-67
2022/05/08 09:43:30;;;;;;;;;16.00;14.00;;;;;30.74;27.03;99447.19;6250172;27;98070;-68
2022/05/08 09:46:36;;;;;;;;;12.00;11.00;;;;;30.77;26.75;99444.53;6244201;27;97778;-67
2022/05/08 09:49:41;;;;;;;;;13.00;12.00;;;;;30.75;26.79;99444.06;6237227;27;96819;-66
2022/05/08 09:52:46;;;;;;;;;13.20;12.20;;;;;30.73;26.69;99443.59;6211530;27;98209;-67
2022/05/08 09:55:57;;;;;;;;;13.00;12.60;;;;;31.10;26.80;99444.56;6240203;27;98081;-65
2022/05/08 09:59:01;;;;;;;;;11.40;10.60;;;;;31.34;26.65;99436.25;6235873;27;96432;-67
2022/05/08 10:02:05;;;;;;;;;13.25;12.00;;;;;31.59;25.79;99437.13;6215883;28;96834;-68
2022/05/08 10:05:09;;;;;;;;;14.00;13.50;;;;;31.79;25.24;99436.19;6240305;27;96476;-65
2022/05/08 10:08:16;;;;;;;;;15.60;13.00;;;;;31.91;25.10;99431.78;6238192;27;97631;-68
2022/05/08 10:14:41;;;;;;;;;14.75;13.75;;;;;31.50;26.05;99419.66;6244540;27;97475;-66
2022/05/08 10:17:45;;;;;;;;;11.50;11.00;;;;;31.29;26.38;99421.72;6249530;27;96519;-67
2022/05/08 10:21:01;;;;;;;;;13.60;11.00;;;;;31.17;26.64;99414.19;6264690;27;98449;-65
2022/05/08 10:24:27;;;;;;;;;14.00;12.00;;;;;31.09;25.89;99419.81;6230915;27;97471;-69
2022/05/08 10:27:32;;;;;;;;;12.25;12.00;;;;;31.19;26.09;99405.44;6241439;27;96840;-67
2022/05/08 10:30:36;;;;;;;;;13.40;12.00;;;;;31.42;25.30;99413.03;6226490;27;97952;-69
2022/05/08 10:34:08;;;;;;;;;12.80;12.20;;;;;31.79;25.86;99413.88;6226471;28;96623;-66
2022/05/08 10:37:28;;;;;;;;;10.60;10.00;;;;;31.88;24.62;99410.97;6258774;27;96963;-65
2022/05/08 10:40:34;;;;;;;;;13.00;12.00;;;;;31.83;24.66;99405.63;6264892;27;97489;-66
2022/05/08 10:43:38;;;;;;;;;14.80;14.00;;;;;32.03;24.93;99407.47;6245812;27;97708;-66
2022/05/08 10:46:41;;;;;;;;;15.00;13.20;;;;;32.23;25.06;99395.38;6244045;27;97497;-67
2022/05/08 10:49:45;;;;;;;;;11.00;10.00;;;;;32.24;24.65;99396.19;6246273;27;96747;-67
2022/05/08 10:52:49;;;;;;;;;11.67;11.00;;;;;32.20;24.26;99398.06;6263764;27;97182;-67
2022/05/08 10:56:05;;;;;;;;;11.00;11.00;;;;;31.97;24.04;99392.13;6244018;27;96859;-66
2022/05/08 10:59:08;;;;;;;;;11.40;10.40;;;;;31.72;24.61;99382.97;6264057;27;96605;-67
2022/05/08 11:02:12;;;;;;;;;13.00;11.60;;;;;31.51;24.64;99379.50;6257876;27;96695;-69
2022/05/08 11:05:19;;;;;;;;;12.00;11.00;;;;;31.29;25.34;99380.75;6247000;27;96683;-67
2022/05/08 11:08:24;;;;;;;;;14.00;12.00;;;;;31.13;25.72;99376.22;6229747;28;97294;-65
2022/05/08 11:11:29;;;;;;;;;13.20;12.20;;;;;30.92;25.79;99374.28;6223344;27;97767;-65
2022/05/08 11:14:32;;;;;;;;;11.00;10.33;;;;;30.65;25.46;99372.09;6227320;27;97203;-66
2022/05/08 11:17:36;;;;;;;;;12.00;12.00;;;;;30.47;26.66;99377.03;6261744;27;97419;-67
2022/05/08 11:20:46;;;;;;;;;12.00;12.00;;;;;30.32;27.52;99371.25;6262835;27;97134;-67
2022/05/08 11:23:49;;;;;;;;;11.80;10.80;;;;;30.20;25.93;99369.25;6261888;27;97585;-68
2022/05/08 11:26:54;;;;;;;;;15.00;13.00;;;;;29.84;26.45;99375.34;6244449;27;98496;-67
2022/05/08 11:29:57;;;;;;;;;12.00;11.00;;;;;29.51;27.42;99366.91;6242302;27;98414;-66
2022/05/08 11:36:25;;;;;;;;;12.20;11.20;;;;;29.00;28.71;99358.75;6218512;28;97377;-69
2022/05/08 11:39:28;;;;;;;;;12.60;11.00;;;;;28.89;28.42;99360.25;6239847;27;96654;-67
2022/05/08 11:42:39;;;;;;;;;12.00;11.00;;;;;28.75;28.08;99361.28;6216792;27;96686;-66
2022/05/08 11:45:57;;;;;;;;;14.00;14.00;;;;;28.73;28.12;99354.44;6260016;27;97245;-66
2022/05/08 11:49:01;;;;;;;;;13.00;12.00;;;;;29.02;28.28;99345.38;6221374;27;99628;-68
2022/05/08 11:52:06;;;;;;;;;13.60;12.00;;;;;29.19;27.77;99348.06;6219742;28;98779;-68
2022/05/08 11:55:09;;;;;;;;;15.00;12.00;;;;;29.47;27.08;99337.34;6239245;27;96930;-66
2022/05/08 11:58:30;;;;;;;;;12.33;11.33;;;;;29.50;28.03;99345.00;6253067;27;97573;-65
2022/05/08 12:01:35;;;;;;;;;10.00;10.00;;;;;29.65;26.86;99336.09;6209335;27;97768;-68
2022/05/08 12:04:41;;;;;;;;;13.50;12.00;;;;;29.72;26.64;99339.13;6225071;27;96852;-68
2022/05/08 12:07:45;;;;;;;;;13.00;12.00;;;;;29.65;26.78;99338.88;6234548;27;96722;-68
2022/05/08 12:10:48;;;;;;;;;11.60;10.40;;;;;29.67;26.77;99348.47;6225866;27;100151;-66
2022/05/08 12:14:07;;;;;;;;;10.00;9.00;;;;;29.66;27.38;99354.38;6261752;27;98156;-67
2022/05/08 12:17:11;;;;;;;;;11.00;10.80;;;;;29.44;27.26;99349.94;6212778;27;96663;-68
2022/05/08 12:20:16;;;;;;;;;10.00;10.00;;;;;29.22;28.90;99353.75;6261399;27;96835;-67
2022/05/08 12:23:20;;;;;;;;;13.00;13.00;;;;;28.88;28.71;99353.91;6241737;27;97435;-67
2022/05/08 12:26:23;;;;;;;;;12.00;12.00;;;;;28.59;29.96;99356.56;6241318;27;97548;-66
2022/05/08 12:29:28;;;;;;;;;13.00;12.00;;;;;28.25;31.40;99380.38;6218226;27;99535;-68
2022/05/08 12:32:31;;;;;;;;;12.00;11.00;;;;;27.49;33.39;99387.41;6250765;27;96642;-66
2022/05/08 12:35:38;;;;;;;;;11.60;11.00;;;;;26.13;32.27;99380.66;6261724;27;96607;-67
2022/05/08 12:38:41;;;;;;;;;9.00;7.00;;;;;24.88;34.36;99361.69;6236250;27;96370;-69
2022/05/08 12:41:45;;;;;;;;;8.50;8.50;;;;;23.73;37.26;99354.13;6216460;27;98427;-66
2022/05/08 12:44:50;;;;;;;;;11.00;10.00;;;;;22.75;39.93;99350.03;6222110;27;98960;-69
2022/05/08 12:47:54;;;;;;;;;7.00;5.80;;;;;22.21;37.13;99341.97;6236103;27;96449;-69
2022/05/08 12:50:58;;;;;;;;;6.50;6.50;;;;;21.83;34.99;99348.25;6236831;27;96775;-66
2022/05/08 12:54:03;;;;;;;;;9.40;9.00;;;;;21.89;42.16;99352.63;6245262;27;97183;-69
2022/05/08 12:57:08;;;;;;;;;9.60;9.60;;;;;22.24;42.28;99346.88;6224300;27;98737;-68
2022/05/08 13:00:13;;;;;;;;;8.00;8.00;;;;;22.67;41.87;99347.09;6252639;27;97408;-69
2022/05/08 13:03:16;;;;;;;;;8.00;8.00;;;;;23.07;41.09;99348.59;6229307;27;98802;-65
2022/05/08 13:06:20;;;;;;;;;7.00;7.00;;;;;23.32;41.24;99338.13;6247436;27;97124;-66
2022/05/08 13:09:23;;;;;;;;;6.00;6.00;;;;;23.77;40.41;99329.56;6217697;27;98459;-65
2022/05/08 13:12:27;;;;;;;;;8.00;8.00;;;;;24.11;40.30;99335.66;6237419;27;97573;-66
2022/05/08 13:15:33;;;;;;;;;5.80;5.80;;;;;24.34;38.97;99332.00;6241920;27;97251;-65
2022/05/08 13:18:37;;;;;;;;;7.00;6.60;;;;;24.47;38.82;99325.72;6260054;27;96989;-65
2022/05/08 13:21:40;;;;;;;;;8.00;8.00;;;;;24.90;38.18;99325.53;6241326;27;96815;-69
2022/05/08 13:24:44;;;;;;;;;7.00;6.00;;;;;25.24;37.17;99328.72;6218408;27;97437;-69
2022/05/08 13:27:47;;;;;;;;;7.00;7.00;;;;;25.39;36.89;99331.16;6224107;27;99498;-69
2022/05/08 13:30:52;;;;;;;;;6.75;6.00;;;;;25.69;36.09;99329.72;6235914;27;97539;-67
2022/05/08 13:33:55;;;;;;;;;8.00;7.00;;;;;25.79;35.09;99321.19;6226793;27;98757;-66
2022/05/08 13:37:00;;;;;;;;;6.00;6.00;;;;;26.13;35.74;99309.63;6251448;27;97337;-65
2022/05/08 13:40:04;;;;;;;;;7.00;6.60;;;;;26.38;32.01;99307.38;6241997;27;97332;-69
2022/05/08 13:43:11;;;;;;;;;5.75;5.25;;;;;26.73;31.41;99312.78;6227179;27;97729;-69
2022/05/08 13:46:16;;;;;;;;;3.80;3.80;;;;;26.97;30.01;99318.00;6253363;27;98483;-66
2022/05/08 13:49:21;;;;;;;;;5.00;5.00;;;;;27.20;28.62;99299.34;6245260;27;97471;-68
2022/05/08 13:52:29;;;;;;;;;4.00;4.00;;;;;27.33;29.70;99314.19;6225930;27;98888;-66
2022/05/08 13:55:33;;;;;;;;;5.00;5.00;;;;;27.01;28.67;99307.91;6242479;27;97954;-65
2022/05/08 13:58:36;;;;;;;;;6.00;6.00;;;;;27.34;28.41;99307.50;6252100;27;97538;-67
2022/05/08 14:01:41;;;;;;;;;7.40;7.00;;;;;27.39;28.19;99310.97;6255265;27;96793;-69
2022/05/08 14:04:46;;;;;;;;;5.00;5.00;;;;;27.38;28.57;99314.84;6259742;27;97043;-65
2022/05/08 14:07:50;;;;;;;;;16.00;15.00;;;;;27.57;26.93;99300.75;6242269;27;99074;-68
2022/05/08 14:10:54;;;;;;;;;15.00;14.40;;;;;27.84;27.48;99296.88;6250681;27;98319;-67
2022/05/08 14:13:57;;;;;;;;;20.20;19.20;;;;;28.00;26.26;99298.03;6236353;27;98074;-67
2022/05/08 14:17:02;;;;;;;;;7.00;7.00;;;;;27.92;25.65;99299.66;6260780;27;97426;-67
2022/05/08 14:20:07;;;;;;;;;8.00;8.00;;;;;28.06;26.29;99298.66;6244047;27;97153;-66
2022/05/08 14:23:11;;;;;;;;;6.60;6.40;;;;;27.82;26.80;99299.16;6226624;28;97783;-67
2022/05/08 14:26:14;;;;;;;;;9.00;8.60;;;;;27.64;27.09;99297.50;6254492;27;96647;-66
2022/05/08 14:29:18;;;;;;;;;6.00;6.00;;;;;27.63;27.37;99293.91;6240385;27;100857;-67
2022/05/08 14:39:09;;;;;;;;;7.40;6.00;;;;;27.33;28.26;99297.56;6257912;27;97462;-67
2022/05/08 14:42:13;;;;;;;;;6.00;6.00;;;;;27.36;28.50;99296.94;6247489;27;96697;-66
2022/05/08 14:45:16;;;;;;;;;8.00;7.00;;;;;27.27;28.60;99298.88;6250799;27;97184;-68